Sunday, April 21, 2019, 11:06 PM EDT
Back to Local

KWRI, Mcguire Air Force Base

Location: Trenton, NJ, United States Lat: 40.017
Local Time: 11:06 PM EDT ( 3:06 GMT) Lon: -74.6
Time Zone: US/Eastern Elev: 134 ft

Show me the last for .
Show Decoded

2019-04-21 21:56 METAR KWRI 220156Z AUTO 17003KT 10SM CLR 13/09 A3005 RMK AO2 SLP175 T01290086 $
                 =
2019-04-21 20:56 METAR KWRI 220056Z AUTO 17005KT 10SM FEW160 15/09 A3004 RMK AO2 SLP172 T01470086
                 $ =
2019-04-21 19:56 METAR KWRI 212356Z AUTO 17005KT 10SM CLR 16/09 A3002 RMK AO2 RAB39E40 SLP165
                 P0000 60000 T01610088 10215 20161 52017 $ =
2019-04-21 18:56 METAR KWRI 212256Z AUTO 20005KT 10SM FEW075 18/08 A3000 RMK AO2 SLP159 T01770083
                 $ =
2019-04-21 17:56 METAR KWRI 212156Z AUTO 24008KT 10SM OVC075 19/07 A2999 RMK AO2 SLP155 T01880072
                 $ =
2019-04-21 16:56 METAR KWRI 212056Z AUTO 25005KT 10SM BKN075 20/07 A2997 RMK AO2 SLP148 T02010068
                 53004 $ =
2019-04-21 15:56 METAR KWRI 211956Z AUTO 24004KT 10SM BKN070 20/07 A2996 RMK AO2 SLP145 T01980065
                 $ =
2019-04-21 14:56 METAR KWRI 211856Z AUTO 00000KT 10SM BKN060 BKN070 21/07 A2995 RMK AO2 SLP141
                 T02100072 $ =
2019-04-21 13:56 METAR KWRI 211756Z AUTO 28005KT 10SM BKN060 19/07 A2995 RMK AO2 SLP141 T01940072
                 10211 20133 50003 $ =
2019-04-21 12:56 METAR KWRI 211656Z AUTO 21008KT 10SM SCT048 BKN065 19/08 A2995 RMK AO2 SLP141
                 T01910078 $ =
2019-04-21 11:56 METAR KWRI 211556Z AUTO 22006KT 10SM OVC055 18/08 A2995 RMK AO2 SLP142 T01800080
                 $ =
2019-04-21 10:56 METAR KWRI 211456Z AUTO 29008KT 10SM FEW040 19/08 A2994 RMK AO2 SLP138 T01930083
                 50012 $ =
2019-04-21 09:56 METAR KWRI 211356Z AUTO 25008KT 10SM CLR 18/10 A2992 RMK AO2 SLP131 T01770096 $
                 =
2019-04-21 08:56 METAR KWRI 211256Z AUTO 17007KT 10SM CLR 15/11 A2992 RMK AO2 SLP131 T01510109 $
                 =
2019-04-21 07:56 METAR KWRI 211156Z AUTO 17004KT 10SM CLR 13/11 A2991 RMK AO2 SLP128 70005
                 T01330108 10139 20111 52017 $ =
2019-04-21 06:56 METAR KWRI 211056Z AUTO 00000KT 10SM CLR 11/10 A2989 RMK AO2 SLP121 T01120101 $
                 =
2019-04-21 05:56 METAR KWRI 210956Z AUTO 11003KT 10SM OVC070 12/11 A2986 RMK AO2 SLP111 T01190105
                 $ =
2019-04-21 04:56 METAR KWRI 210856Z AUTO 00000KT 10SM OVC060 12/10 A2986 RMK AO2 SLP111 T01190100
                 53007 $ =
2019-04-21 03:56 METAR KWRI 210756Z AUTO 00000KT 10SM OVC075 12/10 A2985 RMK AO2 SLP107 T01160103
                 $ =
2019-04-21 02:56 METAR KWRI 210656Z AUTO 00000KT 10SM OVC100 12/10 A2983 RMK AO2 SLP101 T01210095
                 $ =
2019-04-21 01:56 METAR KWRI 210556Z AUTO 19004KT 10SM CLR 12/10 A2983 RMK AO2 SLP101 T01240096
                 10150 20122 51006 $ =
2019-04-21 00:56 METAR KWRI 210456Z AUTO 17004KT 10SM CLR 12/10 A2983 RMK AO2 SLP101 T01230095
                 402250122 $ =
2019-04-20 23:56 METAR KWRI 210356Z AUTO 17006KT 10SM CLR 13/10 A2983 RMK AO2 SLP101 T01280098 $
                 =

Support USWX by starting your Amazon purchase here.